sensor_id;sensor_type;location;lat;lon;timestamp;temperature;humidity
33761;DHT22;20084;47.912;19.044;2024-03-08T00:00:27;8.00;99.90
33761;DHT22;20084;47.912;19.044;2024-03-08T00:02:52;7.90;99.90
33761;DHT22;20084;47.912;19.044;2024-03-08T00:05:19;7.80;99.90
33761;DHT22;20084;47.912;19.044;2024-03-08T00:07:45;7.80;99.90
33761;DHT22;20084;47.912;19.044;2024-03-08T00:10:12;7.90;99.90
33761;DHT22;20084;47.912;19.044;2024-03-08T00:12:42;7.90;99.90
33761;DHT22;20084;47.912;19.044;2024-03-08T00:15:11;7.90;99.90
33761;DHT22;20084;47.912;19.044;2024-03-08T00:17:39;7.90;99.90
33761;DHT22;20084;47.912;19.044;2024-03-08T00:20:06;7.80;99.90
33761;DHT22;20084;47.912;19.044;2024-03-08T00:22:37;7.80;99.90
33761;DHT22;20084;47.912;19.044;2024-03-08T00:25:04;7.80;99.90
33761;DHT22;20084;47.912;19.044;2024-03-08T00:27:30;7.80;99.90
33761;DHT22;20084;47.912;19.044;2024-03-08T00:29:56;7.80;99.90
33761;DHT22;20084;47.912;19.044;2024-03-08T00:32:22;7.90;99.90
33761;DHT22;20084;47.912;19.044;2024-03-08T00:34:50;7.90;99.90
33761;DHT22;20084;47.912;19.044;2024-03-08T00:37:20;7.90;99.90
33761;DHT22;20084;47.912;19.044;2024-03-08T00:39:50;7.90;99.90
33761;DHT22;20084;47.912;19.044;2024-03-08T00:42:17;8.00;99.90
33761;DHT22;20084;47.912;19.044;2024-03-08T00:44:43;7.90;99.90
33761;DHT22;20084;47.912;19.044;2024-03-08T00:47:09;7.90;99.90
33761;DHT22;20084;47.912;19.044;2024-03-08T00:49:35;7.90;99.90
33761;DHT22;20084;47.912;19.044;2024-03-08T00:52:02;7.80;99.90
33761;DHT22;20084;47.912;19.044;2024-03-08T00:54:27;7.80;99.90
33761;DHT22;20084;47.912;19.044;2024-03-08T00:56:53;7.90;99.90
33761;DHT22;20084;47.912;19.044;2024-03-08T00:59:19;7.90;99.90
33761;DHT22;20084;47.912;19.044;2024-03-08T01:01:44;7.80;99.90
33761;DHT22;20084;47.912;19.044;2024-03-08T01:04:10;7.70;99.90
33761;DHT22;20084;47.912;19.044;2024-03-08T01:06:37;7.80;99.90
33761;DHT22;20084;47.912;19.044;2024-03-08T01:09:02;7.70;99.90
33761;DHT22;20084;47.912;19.044;2024-03-08T01:11:28;7.80;99.90
33761;DHT22;20084;47.912;19.044;2024-03-08T01:13:54;7.80;99.90
33761;DHT22;20084;47.912;19.044;2024-03-08T01:16:19;7.80;99.90
33761;DHT22;20084;47.912;19.044;2024-03-08T01:18:48;7.70;99.90
33761;DHT22;20084;47.912;19.044;2024-03-08T01:21:14;7.70;99.90
33761;DHT22;20084;47.912;19.044;2024-03-08T01:23:39;7.80;99.90
33761;DHT22;20084;47.912;19.044;2024-03-08T01:26:05;7.80;99.90
33761;DHT22;20084;47.912;19.044;2024-03-08T01:28:31;7.80;99.90
33761;DHT22;20084;47.912;19.044;2024-03-08T01:30:59;7.70;99.90
33761;DHT22;20084;47.912;19.044;2024-03-08T01:33:26;7.70;99.90
33761;DHT22;20084;47.912;19.044;2024-03-08T01:35:52;7.70;99.90
33761;DHT22;20084;47.912;19.044;2024-03-08T01:38:19;7.80;99.90
33761;DHT22;20084;47.912;19.044;2024-03-08T01:40:44;7.90;99.90
33761;DHT22;20084;47.912;19.044;2024-03-08T01:43:20;7.80;99.90
33761;DHT22;20084;47.912;19.044;2024-03-08T01:45:47;7.70;99.90
33761;DHT22;20084;47.912;19.044;2024-03-08T01:48:14;7.70;99.90
33761;DHT22;20084;47.912;19.044;2024-03-08T01:50:40;7.70;99.90
33761;DHT22;20084;47.912;19.044;2024-03-08T01:53:07;7.70;99.90
33761;DHT22;20084;47.912;19.044;2024-03-08T01:55:36;7.70;99.90
33761;DHT22;20084;47.912;19.044;2024-03-08T01:58:05;7.80;99.90
33761;DHT22;20084;47.912;19.044;2024-03-08T02:00:32;7.80;99.90
33761;DHT22;20084;47.912;19.044;2024-03-08T02:02:58;7.80;99.90
33761;DHT22;20084;47.912;19.044;2024-03-08T02:05:24;8.00;99.90
33761;DHT22;20084;47.912;19.044;2024-03-08T02:07:50;8.00;99.90
33761;DHT22;20084;47.912;19.044;2024-03-08T02:10:17;7.90;99.90
33761;DHT22;20084;47.912;19.044;2024-03-08T02:12:42;7.90;99.90
33761;DHT22;20084;47.912;19.044;2024-03-08T02:15:09;7.90;99.90
33761;DHT22;20084;47.912;19.044;2024-03-08T02:17:35;8.00;99.90
33761;DHT22;20084;47.912;19.044;2024-03-08T02:20:01;8.10;99.90
33761;DHT22;20084;47.912;19.044;2024-03-08T02:22:30;8.10;99.90
33761;DHT22;20084;47.912;19.044;2024-03-08T02:24:56;8.10;99.90
33761;DHT22;20084;47.912;19.044;2024-03-08T02:27:25;8.20;99.90
33761;DHT22;20084;47.912;19.044;2024-03-08T02:29:53;8.20;99.90
33761;DHT22;20084;47.912;19.044;2024-03-08T02:32:21;8.20;99.90
33761;DHT22;20084;47.912;19.044;2024-03-08T02:34:47;8.20;99.90
33761;DHT22;20084;47.912;19.044;2024-03-08T02:37:13;8.20;99.90
33761;DHT22;20084;47.912;19.044;2024-03-08T02:39:39;8.20;99.90
33761;DHT22;20084;47.912;19.044;2024-03-08T02:42:04;8.30;99.90
33761;DHT22;20084;47.912;19.044;2024-03-08T02:44:30;8.30;99.90
33761;DHT22;20084;47.912;19.044;2024-03-08T02:46:55;8.30;99.90
33761;DHT22;20084;47.912;19.044;2024-03-08T02:49:21;8.30;99.90
33761;DHT22;20084;47.912;19.044;2024-03-08T02:51:47;8.20;99.90
33761;DHT22;20084;47.912;19.044;2024-03-08T02:54:12;8.20;99.90
33761;DHT22;20084;47.912;19.044;2024-03-08T02:56:38;8.20;99.90
33761;DHT22;20084;47.912;19.044;2024-03-08T02:59:04;8.10;99.90
33761;DHT22;20084;47.912;19.044;2024-03-08T03:01:30;8.10;99.90
33761;DHT22;20084;47.912;19.044;2024-03-08T03:03:57;8.10;99.90
33761;DHT22;20084;47.912;19.044;2024-03-08T03:06:23;8.20;99.90
33761;DHT22;20084;47.912;19.044;2024-03-08T03:08:49;8.30;99.90
33761;DHT22;20084;47.912;19.044;2024-03-08T03:11:16;8.10;99.90
33761;DHT22;20084;47.912;19.044;2024-03-08T03:13:42;8.10;99.90
33761;DHT22;20084;47.912;19.044;2024-03-08T03:16:19;8.10;99.90
33761;DHT22;20084;47.912;19.044;2024-03-08T03:18:45;8.10;99.90
33761;DHT22;20084;47.912;19.044;2024-03-08T03:21:12;8.20;99.90
33761;DHT22;20084;47.912;19.044;2024-03-08T03:23:39;8.30;99.90
33761;DHT22;20084;47.912;19.044;2024-03-08T03:26:08;8.20;99.90
33761;DHT22;20084;47.912;19.044;2024-03-08T03:28:34;8.10;99.90
33761;DHT22;20084;47.912;19.044;2024-03-08T03:31:00;8.10;99.90
33761;DHT22;20084;47.912;19.044;2024-03-08T03:33:27;8.00;99.90
33761;DHT22;20084;47.912;19.044;2024-03-08T03:35:52;8.10;99.90
33761;DHT22;20084;47.912;19.044;2024-03-08T03:38:18;8.20;99.90
33761;DHT22;20084;47.912;19.044;2024-03-08T03:40:45;8.20;99.90
33761;DHT22;20084;47.912;19.044;2024-03-08T03:43:11;8.30;99.90
33761;DHT22;20084;47.912;19.044;2024-03-08T03:45:38;8.20;99.90
33761;DHT22;20084;47.912;19.044;2024-03-08T03:48:06;8.20;99.90
33761;DHT22;20084;47.912;19.044;2024-03-08T03:50:35;8.20;99.90
33761;DHT22;20084;47.912;19.044;2024-03-08T03:53:00;8.20;99.90
33761;DHT22;20084;47.912;19.044;2024-03-08T03:55:27;8.20;99.90
33761;DHT22;20084;47.912;19.044;2024-03-08T03:57:54;8.20;99.90
33761;DHT22;20084;47.912;19.044;2024-03-08T04:00:19;8.10;99.90
33761;DHT22;20084;47.912;19.044;2024-03-08T04:02:45;8.20;99.90
33761;DHT22;20084;47.912;19.044;2024-03-08T04:05:12;8.20;99.90
33761;DHT22;20084;47.912;19.044;2024-03-08T04:07:38;8.00;99.90
33761;DHT22;20084;47.912;19.044;2024-03-08T04:10:05;8.10;99.90
33761;DHT22;20084;47.912;19.044;2024-03-08T04:12:35;8.10;99.90
33761;DHT22;20084;47.912;19.044;2024-03-08T04:15:01;8.10;99.90
33761;DHT22;20084;47.912;19.044;2024-03-08T04:17:27;8.20;99.90
33761;DHT22;20084;47.912;19.044;2024-03-08T04:19:52;8.10;99.90
33761;DHT22;20084;47.912;19.044;2024-03-08T04:22:19;8.10;99.90
33761;DHT22;20084;47.912;19.044;2024-03-08T04:24:45;8.10;99.90
33761;DHT22;20084;47.912;19.044;2024-03-08T04:27:11;8.10;99.90
33761;DHT22;20084;47.912;19.044;2024-03-08T04:29:37;8.20;99.90
33761;DHT22;20084;47.912;19.044;2024-03-08T04:32:06;8.20;99.90
33761;DHT22;20084;47.912;19.044;2024-03-08T04:34:34;8.20;99.90
33761;DHT22;20084;47.912;19.044;2024-03-08T04:37:00;8.20;99.90
33761;DHT22;20084;47.912;19.044;2024-03-08T04:39:26;8.20;99.90
33761;DHT22;20084;47.912;19.044;2024-03-08T04:41:59;8.20;99.90
33761;DHT22;20084;47.912;19.044;2024-03-08T04:44:28;8.20;99.90
33761;DHT22;20084;47.912;19.044;2024-03-08T04:46:54;8.10;99.90
33761;DHT22;20084;47.912;19.044;2024-03-08T04:49:19;8.10;99.90
33761;DHT22;20084;47.912;19.044;2024-03-08T04:51:47;8.10;99.90
33761;DHT22;20084;47.912;19.044;2024-03-08T04:54:12;8.00;99.90
33761;DHT22;20084;47.912;19.044;2024-03-08T04:56:39;8.10;99.90
33761;DHT22;20084;47.912;19.044;2024-03-08T04:59:04;8.10;99.90
33761;DHT22;20084;47.912;19.044;2024-03-08T05:01:34;8.20;99.90
33761;DHT22;20084;47.912;19.044;2024-03-08T05:04:03;8.20;99.90
33761;DHT22;20084;47.912;19.044;2024-03-08T05:06:29;8.20;99.90
33761;DHT22;20084;47.912;19.044;2024-03-08T05:08:55;8.20;99.90
33761;DHT22;20084;47.912;19.044;2024-03-08T05:11:21;8.30;99.90
33761;DHT22;20084;47.912;19.044;2024-03-08T05:13:47;8.30;99.90
33761;DHT22;20084;47.912;19.044;2024-03-08T05:16:13;8.40;99.90
33761;DHT22;20084;47.912;19.044;2024-03-08T05:18:41;8.20;99.90
33761;DHT22;20084;47.912;19.044;2024-03-08T05:21:07;8.10;99.90
33761;DHT22;20084;47.912;19.044;2024-03-08T05:23:34;8.10;99.90
33761;DHT22;20084;47.912;19.044;2024-03-08T05:26:00;8.10;99.90
33761;DHT22;20084;47.912;19.044;2024-03-08T05:28:26;8.10;99.90
33761;DHT22;20084;47.912;19.044;2024-03-08T05:30:52;8.00;99.90
33761;DHT22;20084;47.912;19.044;2024-03-08T05:33:17;8.00;99.90
33761;DHT22;20084;47.912;19.044;2024-03-08T05:35:44;8.00;99.90
33761;DHT22;20084;47.912;19.044;2024-03-08T05:38:10;8.00;99.90
33761;DHT22;20084;47.912;19.044;2024-03-08T05:40:38;8.10;99.90
33761;DHT22;20084;47.912;19.044;2024-03-08T05:43:04;8.10;99.90
33761;DHT22;20084;47.912;19.044;2024-03-08T05:45:29;8.10;99.90
33761;DHT22;20084;47.912;19.044;2024-03-08T05:47:55;8.10;99.90
33761;DHT22;20084;47.912;19.044;2024-03-08T05:50:20;8.10;99.90
33761;DHT22;20084;47.912;19.044;2024-03-08T05:52:46;8.10;99.90
33761;DHT22;20084;47.912;19.044;2024-03-08T05:55:13;8.20;99.90
33761;DHT22;20084;47.912;19.044;2024-03-08T05:57:40;8.20;99.90
33761;DHT22;20084;47.912;19.044;2024-03-08T06:00:06;8.30;99.90
33761;DHT22;20084;47.912;19.044;2024-03-08T06:02:32;8.30;99.90
33761;DHT22;20084;47.912;19.044;2024-03-08T06:04:58;8.40;99.90
33761;DHT22;20084;47.912;19.044;2024-03-08T06:07:24;8.50;99.90
33761;DHT22;20084;47.912;19.044;2024-03-08T06:09:49;8.50;99.90
33761;DHT22;20084;47.912;19.044;2024-03-08T06:12:15;8.50;99.90
33761;DHT22;20084;47.912;19.044;2024-03-08T06:14:45;8.40;99.90
33761;DHT22;20084;47.912;19.044;2024-03-08T06:17:11;8.30;99.90
33761;DHT22;20084;47.912;19.044;2024-03-08T06:19:37;8.30;99.90
33761;DHT22;20084;47.912;19.044;2024-03-08T06:22:03;8.30;99.90
33761;DHT22;20084;47.912;19.044;2024-03-08T06:24:31;8.30;99.90
33761;DHT22;20084;47.912;19.044;2024-03-08T06:26:57;8.20;99.90
33761;DHT22;20084;47.912;19.044;2024-03-08T06:29:23;8.20;99.90
33761;DHT22;20084;47.912;19.044;2024-03-08T06:31:49;8.20;99.90
33761;DHT22;20084;47.912;19.044;2024-03-08T06:34:15;8.40;99.90
33761;DHT22;20084;47.912;19.044;2024-03-08T06:36:41;8.40;99.90
33761;DHT22;20084;47.912;19.044;2024-03-08T06:39:06;8.50;99.90
33761;DHT22;20084;47.912;19.044;2024-03-08T06:41:38;8.50;99.90
33761;DHT22;20084;47.912;19.044;2024-03-08T06:44:03;8.40;99.90
33761;DHT22;20084;47.912;19.044;2024-03-08T06:46:29;8.30;99.90
33761;DHT22;20084;47.912;19.044;2024-03-08T06:48:54;8.30;99.90
33761;DHT22;20084;47.912;19.044;2024-03-08T06:51:21;8.40;99.90
33761;DHT22;20084;47.912;19.044;2024-03-08T06:53:47;8.30;99.90
33761;DHT22;20084;47.912;19.044;2024-03-08T06:56:14;8.30;99.90
33761;DHT22;20084;47.912;19.044;2024-03-08T06:58:40;8.30;99.90
33761;DHT22;20084;47.912;19.044;2024-03-08T07:01:06;8.30;99.90
33761;DHT22;20084;47.912;19.044;2024-03-08T07:03:33;8.30;99.90
33761;DHT22;20084;47.912;19.044;2024-03-08T07:05:58;8.30;99.90
33761;DHT22;20084;47.912;19.044;2024-03-08T07:08:25;8.30;99.90
33761;DHT22;20084;47.912;19.044;2024-03-08T07:10:53;8.40;99.90
33761;DHT22;20084;47.912;19.044;2024-03-08T07:13:19;8.50;99.90
33761;DHT22;20084;47.912;19.044;2024-03-08T07:15:44;8.50;99.90
33761;DHT22;20084;47.912;19.044;2024-03-08T07:18:11;8.50;99.90
33761;DHT22;20084;47.912;19.044;2024-03-08T07:20:40;8.50;99.90
33761;DHT22;20084;47.912;19.044;2024-03-08T07:23:05;8.50;99.90
33761;DHT22;20084;47.912;19.044;2024-03-08T07:25:31;8.50;99.90
33761;DHT22;20084;47.912;19.044;2024-03-08T07:27:56;8.50;99.90
33761;DHT22;20084;47.912;19.044;2024-03-08T07:30:26;8.50;99.90
33761;DHT22;20084;47.912;19.044;2024-03-08T07:33:24;8.50;99.90
33761;DHT22;20084;47.912;19.044;2024-03-08T07:35:50;8.60;99.90
33761;DHT22;20084;47.912;19.044;2024-03-08T07:38:16;8.50;99.90
33761;DHT22;20084;47.912;19.044;2024-03-08T07:40:42;8.50;99.90
33761;DHT22;20084;47.912;19.044;2024-03-08T07:43:11;8.60;99.90
33761;DHT22;20084;47.912;19.044;2024-03-08T07:45:38;8.50;99.90
33761;DHT22;20084;47.912;19.044;2024-03-08T07:48:04;8.50;99.90
33761;DHT22;20084;47.912;19.044;2024-03-08T07:50:38;8.50;99.90
33761;DHT22;20084;47.912;19.044;2024-03-08T07:53:07;8.60;99.90
33761;DHT22;20084;47.912;19.044;2024-03-08T07:55:34;8.60;99.90
33761;DHT22;20084;47.912;19.044;2024-03-08T07:58:01;8.50;99.90
33761;DHT22;20084;47.912;19.044;2024-03-08T08:00:27;8.60;99.90
33761;DHT22;20084;47.912;19.044;2024-03-08T08:02:53;8.60;99.90
33761;DHT22;20084;47.912;19.044;2024-03-08T08:05:19;8.60;99.90
33761;DHT22;20084;47.912;19.044;2024-03-08T08:07:45;8.30;99.90
33761;DHT22;20084;47.912;19.044;2024-03-08T08:10:12;8.20;99.90
33761;DHT22;20084;47.912;19.044;2024-03-08T08:12:44;8.20;99.90
33761;DHT22;20084;47.912;19.044;2024-03-08T08:15:09;8.30;99.90
33761;DHT22;20084;47.912;19.044;2024-03-08T08:17:35;8.20;99.90
33761;DHT22;20084;47.912;19.044;2024-03-08T08:20:01;8.10;99.90
33761;DHT22;20084;47.912;19.044;2024-03-08T08:22:30;8.10;99.90
33761;DHT22;20084;47.912;19.044;2024-03-08T08:24:56;8.00;99.90
33761;DHT22;20084;47.912;19.044;2024-03-08T08:27:21;8.10;99.90
33761;DHT22;20084;47.912;19.044;2024-03-08T08:29:47;8.10;99.90
33761;DHT22;20084;47.912;19.044;2024-03-08T08:32:15;8.20;99.90
33761;DHT22;20084;47.912;19.044;2024-03-08T08:34:40;8.20;99.90
33761;DHT22;20084;47.912;19.044;2024-03-08T08:37:07;8.10;99.90
33761;DHT22;20084;47.912;19.044;2024-03-08T08:39:35;8.20;99.90
33761;DHT22;20084;47.912;19.044;2024-03-08T08:42:00;8.10;99.90
33761;DHT22;20084;47.912;19.044;2024-03-08T08:44:27;8.20;99.90
33761;DHT22;20084;47.912;19.044;2024-03-08T08:46:53;8.20;99.90
33761;DHT22;20084;47.912;19.044;2024-03-08T08:49:19;8.20;99.90
33761;DHT22;20084;47.912;19.044;2024-03-08T08:51:52;8.30;99.90
33761;DHT22;20084;47.912;19.044;2024-03-08T08:54:18;8.30;99.90
33761;DHT22;20084;47.912;19.044;2024-03-08T08:56:44;8.30;99.90
33761;DHT22;20084;47.912;19.044;2024-03-08T08:59:10;8.30;99.90
33761;DHT22;20084;47.912;19.044;2024-03-08T09:01:39;8.40;99.90
33761;DHT22;20084;47.912;19.044;2024-03-08T09:04:05;8.40;99.90
33761;DHT22;20084;47.912;19.044;2024-03-08T09:06:31;8.30;99.90
33761;DHT22;20084;47.912;19.044;2024-03-08T09:08:57;8.20;99.90
33761;DHT22;20084;47.912;19.044;2024-03-08T09:11:23;8.20;99.90
33761;DHT22;20084;47.912;19.044;2024-03-08T09:13:50;8.30;99.90
33761;DHT22;20084;47.912;19.044;2024-03-08T09:16:16;8.40;99.90
33761;DHT22;20084;47.912;19.044;2024-03-08T09:18:41;8.40;99.90
33761;DHT22;20084;47.912;19.044;2024-03-08T09:21:07;8.40;99.90
33761;DHT22;20084;47.912;19.044;2024-03-08T09:23:38;8.50;99.90
33761;DHT22;20084;47.912;19.044;2024-03-08T09:26:04;8.50;99.90
33761;DHT22;20084;47.912;19.044;2024-03-08T09:28:29;8.50;99.90
33761;DHT22;20084;47.912;19.044;2024-03-08T09:30:55;8.50;99.90
33761;DHT22;20084;47.912;19.044;2024-03-08T09:33:21;8.60;99.90
33761;DHT22;20084;47.912;19.044;2024-03-08T09:35:47;8.60;99.90
33761;DHT22;20084;47.912;19.044;2024-03-08T09:38:14;8.70;99.90
33761;DHT22;20084;47.912;19.044;2024-03-08T09:40:43;8.70;99.90
33761;DHT22;20084;47.912;19.044;2024-03-08T09:43:09;8.70;99.90
33761;DHT22;20084;47.912;19.044;2024-03-08T09:45:40;8.60;99.90
33761;DHT22;20084;47.912;19.044;2024-03-08T09:48:13;8.70;99.90
33761;DHT22;20084;47.912;19.044;2024-03-08T09:50:42;8.70;99.90
33761;DHT22;20084;47.912;19.044;2024-03-08T09:53:08;8.80;99.90
33761;DHT22;20084;47.912;19.044;2024-03-08T09:55:38;8.80;99.90
33761;DHT22;20084;47.912;19.044;2024-03-08T09:58:08;8.80;99.90
33761;DHT22;20084;47.912;19.044;2024-03-08T10:00:47;8.80;99.90
33761;DHT22;20084;47.912;19.044;2024-03-08T10:03:13;8.90;99.90
33761;DHT22;20084;47.912;19.044;2024-03-08T10:05:40;9.00;99.90
33761;DHT22;20084;47.912;19.044;2024-03-08T10:08:06;8.90;99.90
33761;DHT22;20084;47.912;19.044;2024-03-08T10:10:34;8.80;99.90
33761;DHT22;20084;47.912;19.044;2024-03-08T10:13:00;8.80;99.90
33761;DHT22;20084;47.912;19.044;2024-03-08T10:15:29;8.80;99.90
33761;DHT22;20084;47.912;19.044;2024-03-08T10:17:57;8.80;99.90
33761;DHT22;20084;47.912;19.044;2024-03-08T10:20:23;8.80;99.90
33761;DHT22;20084;47.912;19.044;2024-03-08T10:22:49;8.90;99.90
33761;DHT22;20084;47.912;19.044;2024-03-08T10:25:15;8.90;99.90
33761;DHT22;20084;47.912;19.044;2024-03-08T10:27:40;9.00;99.90
33761;DHT22;20084;47.912;19.044;2024-03-08T10:30:10;9.00;99.90
33761;DHT22;20084;47.912;19.044;2024-03-08T10:32:38;9.00;99.90
33761;DHT22;20084;47.912;19.044;2024-03-08T10:35:04;9.00;99.90
33761;DHT22;20084;47.912;19.044;2024-03-08T10:37:30;9.00;99.90
33761;DHT22;20084;47.912;19.044;2024-03-08T10:40:09;9.00;99.90
33761;DHT22;20084;47.912;19.044;2024-03-08T10:42:51;9.00;99.90
33761;DHT22;20084;47.912;19.044;2024-03-08T10:50:49;9.00;99.90
33761;DHT22;20084;47.912;19.044;2024-03-08T10:53:18;9.00;99.90
33761;DHT22;20084;47.912;19.044;2024-03-08T10:55:46;9.10;99.90
33761;DHT22;20084;47.912;19.044;2024-03-08T10:58:12;9.10;99.90
33761;DHT22;20084;47.912;19.044;2024-03-08T11:00:38;9.10;99.90
33761;DHT22;20084;47.912;19.044;2024-03-08T11:03:04;9.10;99.90
33761;DHT22;20084;47.912;19.044;2024-03-08T11:05:40;9.10;99.90
33761;DHT22;20084;47.912;19.044;2024-03-08T11:10:51;9.10;99.90
33761;DHT22;20084;47.912;19.044;2024-03-08T11:13:41;9.00;99.90
33761;DHT22;20084;47.912;19.044;2024-03-08T11:16:12;9.10;99.90
33761;DHT22;20084;47.912;19.044;2024-03-08T11:19:01;9.00;99.90
33761;DHT22;20084;47.912;19.044;2024-03-08T11:21:33;9.00;99.90
33761;DHT22;20084;47.912;19.044;2024-03-08T11:24:11;9.00;99.90
33761;DHT22;20084;47.912;19.044;2024-03-08T11:26:40;9.00;99.90
33761;DHT22;20084;47.912;19.044;2024-03-08T11:32:16;9.00;99.90
33761;DHT22;20084;47.912;19.044;2024-03-08T11:34:47;9.00;99.90
33761;DHT22;20084;47.912;19.044;2024-03-08T11:37:20;9.00;99.90
33761;DHT22;20084;47.912;19.044;2024-03-08T11:39:52;9.00;99.90
33761;DHT22;20084;47.912;19.044;2024-03-08T11:42:19;9.10;99.90
33761;DHT22;20084;47.912;19.044;2024-03-08T11:44:45;9.10;99.90
33761;DHT22;20084;47.912;19.044;2024-03-08T11:47:12;9.20;99.90
33761;DHT22;20084;47.912;19.044;2024-03-08T11:49:38;9.20;99.90
33761;DHT22;20084;47.912;19.044;2024-03-08T11:52:13;9.20;99.90
33761;DHT22;20084;47.912;19.044;2024-03-08T11:54:53;9.10;99.90
33761;DHT22;20084;47.912;19.044;2024-03-08T11:57:25;9.00;99.90
33761;DHT22;20084;47.912;19.044;2024-03-08T11:59:51;9.10;99.90
33761;DHT22;20084;47.912;19.044;2024-03-08T12:02:17;9.20;99.90
33761;DHT22;20084;47.912;19.044;2024-03-08T12:04:44;9.20;99.90
33761;DHT22;20084;47.912;19.044;2024-03-08T12:07:12;9.20;99.90
33761;DHT22;20084;47.912;19.044;2024-03-08T12:09:40;9.20;99.90
33761;DHT22;20084;47.912;19.044;2024-03-08T12:12:07;9.30;99.90
33761;DHT22;20084;47.912;19.044;2024-03-08T12:14:33;9.20;99.90
33761;DHT22;20084;47.912;19.044;2024-03-08T12:16:59;9.10;99.90
33761;DHT22;20084;47.912;19.044;2024-03-08T12:19:30;9.00;99.90
33761;DHT22;20084;47.912;19.044;2024-03-08T12:21:56;9.10;99.90
33761;DHT22;20084;47.912;19.044;2024-03-08T12:24:21;9.10;99.90
33761;DHT22;20084;47.912;19.044;2024-03-08T12:26:48;9.10;99.90
33761;DHT22;20084;47.912;19.044;2024-03-08T12:31:48;9.20;99.90
33761;DHT22;20084;47.912;19.044;2024-03-08T12:34:14;9.20;99.90
33761;DHT22;20084;47.912;19.044;2024-03-08T12:36:51;9.20;99.90
33761;DHT22;20084;47.912;19.044;2024-03-08T12:39:20;9.30;99.90
33761;DHT22;20084;47.912;19.044;2024-03-08T12:41:52;9.30;99.90
33761;DHT22;20084;47.912;19.044;2024-03-08T12:44:19;9.30;99.90
33761;DHT22;20084;47.912;19.044;2024-03-08T12:46:47;9.30;99.90
33761;DHT22;20084;47.912;19.044;2024-03-08T12:49:13;9.30;99.90
33761;DHT22;20084;47.912;19.044;2024-03-08T12:51:46;9.20;99.90
33761;DHT22;20084;47.912;19.044;2024-03-08T12:54:12;9.20;99.90
33761;DHT22;20084;47.912;19.044;2024-03-08T12:56:38;9.20;99.90
33761;DHT22;20084;47.912;19.044;2024-03-08T12:59:09;9.20;99.90
33761;DHT22;20084;47.912;19.044;2024-03-08T13:01:35;9.20;99.90
33761;DHT22;20084;47.912;19.044;2024-03-08T13:04:03;9.30;99.90
33761;DHT22;20084;47.912;19.044;2024-03-08T13:06:30;9.30;99.90
33761;DHT22;20084;47.912;19.044;2024-03-08T13:08:56;9.30;99.90
33761;DHT22;20084;47.912;19.044;2024-03-08T13:11:24;9.30;99.90
33761;DHT22;20084;47.912;19.044;2024-03-08T13:13:52;9.30;99.90
33761;DHT22;20084;47.912;19.044;2024-03-08T13:16:18;9.30;99.90
33761;DHT22;20084;47.912;19.044;2024-03-08T13:18:45;9.20;99.90
33761;DHT22;20084;47.912;19.044;2024-03-08T13:21:14;9.10;99.90
33761;DHT22;20084;47.912;19.044;2024-03-08T13:23:41;9.10;99.90
33761;DHT22;20084;47.912;19.044;2024-03-08T13:26:11;9.10;99.90
33761;DHT22;20084;47.912;19.044;2024-03-08T13:28:41;9.20;99.90
33761;DHT22;20084;47.912;19.044;2024-03-08T13:31:06;9.20;99.90
33761;DHT22;20084;47.912;19.044;2024-03-08T13:33:33;9.30;99.90
33761;DHT22;20084;47.912;19.044;2024-03-08T13:36:03;9.30;99.90
33761;DHT22;20084;47.912;19.044;2024-03-08T13:38:29;9.40;99.90
33761;DHT22;20084;47.912;19.044;2024-03-08T13:40:58;9.40;99.90
33761;DHT22;20084;47.912;19.044;2024-03-08T13:43:24;9.40;99.90
33761;DHT22;20084;47.912;19.044;2024-03-08T13:45:49;9.50;99.90
33761;DHT22;20084;47.912;19.044;2024-03-08T13:48:15;9.50;99.90
33761;DHT22;20084;47.912;19.044;2024-03-08T13:50:41;9.50;99.90
33761;DHT22;20084;47.912;19.044;2024-03-08T13:53:07;9.50;99.90
33761;DHT22;20084;47.912;19.044;2024-03-08T13:55:35;9.50;99.90
33761;DHT22;20084;47.912;19.044;2024-03-08T13:58:01;9.50;99.90
33761;DHT22;20084;47.912;19.044;2024-03-08T14:00:27;9.50;99.90
33761;DHT22;20084;47.912;19.044;2024-03-08T14:02:58;9.50;99.90
33761;DHT22;20084;47.912;19.044;2024-03-08T14:05:24;9.50;99.90
33761;DHT22;20084;47.912;19.044;2024-03-08T14:07:50;9.60;99.90
33761;DHT22;20084;47.912;19.044;2024-03-08T14:10:15;9.60;99.90
33761;DHT22;20084;47.912;19.044;2024-03-08T14:12:42;9.50;99.90
33761;DHT22;20084;47.912;19.044;2024-03-08T14:15:09;9.50;99.90
33761;DHT22;20084;47.912;19.044;2024-03-08T14:17:36;9.60;99.90
33761;DHT22;20084;47.912;19.044;2024-03-08T14:20:03;9.60;99.90
33761;DHT22;20084;47.912;19.044;2024-03-08T14:22:29;9.60;99.90
33761;DHT22;20084;47.912;19.044;2024-03-08T14:24:56;9.70;99.90
33761;DHT22;20084;47.912;19.044;2024-03-08T14:27:22;9.70;99.90
33761;DHT22;20084;47.912;19.044;2024-03-08T14:29:48;9.70;99.90
33761;DHT22;20084;47.912;19.044;2024-03-08T14:32:13;9.60;99.90
33761;DHT22;20084;47.912;19.044;2024-03-08T14:34:39;9.60;99.90
33761;DHT22;20084;47.912;19.044;2024-03-08T14:37:05;9.60;99.90
33761;DHT22;20084;47.912;19.044;2024-03-08T14:39:36;9.60;99.90
33761;DHT22;20084;47.912;19.044;2024-03-08T14:42:02;9.60;99.90
33761;DHT22;20084;47.912;19.044;2024-03-08T14:44:28;9.70;99.90
33761;DHT22;20084;47.912;19.044;2024-03-08T14:46:58;9.70;99.90
33761;DHT22;20084;47.912;19.044;2024-03-08T14:49:24;9.70;99.90
33761;DHT22;20084;47.912;19.044;2024-03-08T14:51:54;9.70;99.90
33761;DHT22;20084;47.912;19.044;2024-03-08T14:54:20;9.70;99.90
33761;DHT22;20084;47.912;19.044;2024-03-08T14:56:48;9.70;99.90
33761;DHT22;20084;47.912;19.044;2024-03-08T14:59:16;9.60;99.90
33761;DHT22;20084;47.912;19.044;2024-03-08T15:01:42;9.70;99.90
33761;DHT22;20084;47.912;19.044;2024-03-08T15:04:09;9.70;99.90
33761;DHT22;20084;47.912;19.044;2024-03-08T15:06:38;9.60;99.90
33761;DHT22;20084;47.912;19.044;2024-03-08T15:09:05;9.50;99.90
33761;DHT22;20084;47.912;19.044;2024-03-08T15:11:40;9.60;99.90
33761;DHT22;20084;47.912;19.044;2024-03-08T15:14:07;9.60;99.90
33761;DHT22;20084;47.912;19.044;2024-03-08T15:16:39;9.60;99.90
33761;DHT22;20084;47.912;19.044;2024-03-08T15:19:06;9.50;99.90
33761;DHT22;20084;47.912;19.044;2024-03-08T15:21:32;9.50;99.90
33761;DHT22;20084;47.912;19.044;2024-03-08T15:23:59;9.50;99.90
33761;DHT22;20084;47.912;19.044;2024-03-08T15:26:25;9.50;99.90
33761;DHT22;20084;47.912;19.044;2024-03-08T15:28:51;9.60;99.90
33761;DHT22;20084;47.912;19.044;2024-03-08T15:31:19;9.50;99.90
33761;DHT22;20084;47.912;19.044;2024-03-08T15:33:46;9.60;99.90
33761;DHT22;20084;47.912;19.044;2024-03-08T15:36:17;9.60;99.90
33761;DHT22;20084;47.912;19.044;2024-03-08T15:38:46;9.50;99.90
33761;DHT22;20084;47.912;19.044;2024-03-08T15:41:13;9.60;99.90
33761;DHT22;20084;47.912;19.044;2024-03-08T15:43:39;9.60;99.90